Hannover, Germany

5:40 AM CET on December 03, 2016 (GMT +0100)
Hannover | | Change Station

Elev 180 ft 52.47 °N, 9.68 °E | Updated 20 minutes ago

Patches of Fog
Patches Fog Shallow Fog
27 °F
Feels Like 27 °F
N
2
Wind Variable Wind from South

Today
High -- | Low -- °F
--% Chance of Precip.
Yesterday
High -- | Low -- °F
Precip. -- in
Pressure 30.24 in
Visibility 3.7 miles
Clouds
Dew Point 25 °F
Humidity 93%
Rainfall 0.00 in
Snow Depth Not available.
8:12 AM 4:09 PM
Waxing Crescent, 12% visible
METAR EDDV 030420Z 17002KT 6000 BCFG MIFG NSC M03/M04 Q1024 TEMPO 2000
Pressure 30.24 in
Visibility 3.7 miles
Clouds
Dew Point 25 °F
Humidity 93%
Rainfall 0.00 in
Snow Depth Not available.
8:12 AM 4:09 PM
Waxing Crescent, 12% visible
METAR EDDV 030420Z 17002KT 6000 BCFG MIFG NSC M03/M04 Q1024 TEMPO 2000

10-Day Weather Forecast

×

Almanac

Astronomy

Dec. 03, 2016 Rise Set
Actual Time
Civil Twilight
Nautical Twilight
Astronomical Twilight
Moon
Length of Visible Light
Length of Day
Tomorrow will be .
, % of the Moon is Illuminated

Today's Extremes

Country Highs Country Lows

Community

WunderPhotos

Upload Photos

1,955,411 photos uploaded!

WunderBlog® & News

Nearby

Air Quality

  Air Quality AQ Index Pollutant
Not available.

Snow Depth

Station Depth Elevation

Earthquake Activity

City Distance Mag. Time & Date
Minimum magnitude displayed is 2.5.

Coastal Water Temperatures

Place Temperature

Stations

Nearby Weather Stations

Station Location Temp. Windchill Dew Point Humidity Wind Precip. Elev Updated Type